Time;durP1;ratioP1;P1;durP2;ratioP2;P2;SDS_P1;SDS_P2;PMS_P1;PMS_P2;Temp;Humidity;BMP_temperature;BMP_pressure;BME280_temperature;BME280_humidity;BME280_pressure;Samples;Min_cycle;Max_cycle;Signal;HPM_P1;HPM_P2
2023/08/20 00:01:18;;;;;;;13.25;4.20;;;20.70;99.90;;;;;;4923724;29;20051;-87
2023/08/20 00:03:47;;;;;;;10.57;4.57;;;20.70;99.90;;;;;;4925945;29;20535;-80
2023/08/20 00:06:18;;;;;;;8.90;5.15;;;20.70;99.90;;;;;;4924369;29;20083;-82
2023/08/20 00:08:44;;;;;;;8.07;4.72;;;20.70;99.90;;;;;;4923755;29;20711;-82
2023/08/20 00:11:11;;;;;;;6.10;4.95;;;20.70;99.90;;;;;;4926061;29;20024;-81
2023/08/20 00:13:36;;;;;;;9.82;5.32;;;20.60;99.90;;;;;;4920047;29;20032;-81
2023/08/20 00:16:03;;;;;;;14.23;5.07;;;20.50;99.90;;;;;;4921740;29;20508;-82
2023/08/20 00:18:29;;;;;;;8.18;4.82;;;20.50;99.90;;;;;;4921533;29;20051;-81
2023/08/20 00:20:57;;;;;;;12.98;5.60;;;20.50;99.90;;;;;;4922327;29;20024;-86
2023/08/20 00:23:26;;;;;;;7.93;4.43;;;20.50;99.90;;;;;;4926189;29;20107;-82
2023/08/20 00:25:53;;;;;;;11.38;5.28;;;20.40;99.90;;;;;;4922502;29;20027;-82
2023/08/20 00:28:20;;;;;;;9.52;6.07;;;20.40;99.90;;;;;;4921962;29;20032;-79
2023/08/20 00:30:46;;;;;;;10.85;5.35;;;20.40;99.90;;;;;;4907355;29;20031;-82
2023/08/20 00:33:12;;;;;;;10.77;4.90;;;20.30;99.90;;;;;;4925982;29;20044;-81
2023/08/20 00:35:37;;;;;;;7.38;5.22;;;20.30;99.90;;;;;;4930770;29;20036;-82
2023/08/20 00:38:03;;;;;;;12.25;5.05;;;20.30;99.90;;;;;;4926721;29;20087;-81
2023/08/20 00:40:32;;;;;;;8.85;4.72;;;20.40;99.90;;;;;;4924437;29;20548;-81
2023/08/20 00:42:57;;;;;;;6.85;4.63;;;20.40;99.90;;;;;;4921538;29;20032;-80
2023/08/20 00:45:24;;;;;;;14.30;5.43;;;20.30;99.90;;;;;;4908330;29;20038;-80
2023/08/20 00:47:51;;;;;;;8.32;4.80;;;20.20;99.90;;;;;;4924629;29;20024;-82
2023/08/20 00:50:18;;;;;;;11.80;4.95;;;20.20;99.90;;;;;;4922621;29;20038;-81
2023/08/20 00:52:44;;;;;;;10.77;4.85;;;20.20;99.90;;;;;;4930325;29;20024;-86
2023/08/20 00:55:12;;;;;;;6.40;4.60;;;20.20;99.90;;;;;;4920660;29;20477;-82
2023/08/20 00:57:39;;;;;;;9.13;5.22;;;20.20;99.90;;;;;;4920051;29;20024;-82
2023/08/20 01:00:07;;;;;;;6.68;4.55;;;20.10;99.90;;;;;;4924541;29;20111;-81
2023/08/20 01:02:34;;;;;;;7.75;4.78;;;20.10;99.90;;;;;;4924193;29;20030;-87
2023/08/20 01:05:01;;;;;;;8.63;4.38;;;20.10;99.90;;;;;;4929488;29;20031;-87
2023/08/20 01:07:33;;;;;;;9.18;4.15;;;20.10;99.90;;;;;;4927482;29;20023;-86
2023/08/20 01:10:27;;;;;;;12.50;4.30;;;20.10;99.90;;;;;;4929130;29;20032;-87
2023/08/20 01:12:54;;;;;;;4.82;3.95;;;20.10;99.90;;;;;;4925602;29;20032;-87
2023/08/20 01:15:19;;;;;;;9.68;4.60;;;20.10;99.90;;;;;;4910162;29;20508;-86
2023/08/20 01:17:47;;;;;;;6.75;3.80;;;19.90;99.90;;;;;;4909622;29;20030;-81
2023/08/20 01:20:14;;;;;;;5.10;3.63;;;19.70;99.90;;;;;;4924417;29;20028;-81
2023/08/20 01:22:43;;;;;;;5.05;3.80;;;19.70;99.90;;;;;;4923701;29;20912;-83
2023/08/20 01:25:30;;;;;;;10.95;3.53;;;19.80;99.90;;;;;;4924932;29;20028;-82
2023/08/20 01:28:04;;;;;;;5.93;3.60;;;19.80;99.90;;;;;;4907631;29;20536;-82
2023/08/20 01:30:31;;;;;;;8.45;3.97;;;19.80;99.90;;;;;;4924929;29;20025;-83
2023/08/20 01:32:57;;;;;;;6.18;3.95;;;19.80;99.90;;;;;;4923655;29;20036;-82
2023/08/20 01:35:26;;;;;;;6.65;4.18;;;19.80;99.90;;;;;;4928029;29;20024;-81
2023/08/20 01:37:52;;;;;;;11.52;3.80;;;19.80;99.90;;;;;;4930094;29;20027;-88
2023/08/20 01:40:17;;;;;;;12.85;3.60;;;19.70;99.90;;;;;;4917579;29;20025;-87
2023/08/20 01:42:43;;;;;;;5.60;3.85;;;19.70;99.90;;;;;;4926016;29;20082;-87
2023/08/20 01:45:09;;;;;;;5.15;3.80;;;19.70;99.90;;;;;;4931459;29;20447;-85
2023/08/20 01:47:35;;;;;;;15.77;5.05;;;19.60;99.90;;;;;;4912699;29;20110;-87
2023/08/20 01:50:01;;;;;;;6.68;5.55;;;19.60;99.90;;;;;;4926503;29;20103;-87
2023/08/20 01:52:29;;;;;;;7.97;5.00;;;19.50;99.90;;;;;;4906019;29;20056;-87
2023/08/20 01:54:58;;;;;;;13.25;6.07;;;19.60;99.90;;;;;;4915121;29;20051;-87
2023/08/20 01:57:25;;;;;;;7.15;5.30;;;19.70;99.90;;;;;;4919576;29;20063;-84
2023/08/20 01:59:51;;;;;;;6.53;5.25;;;19.60;99.90;;;;;;4930622;29;20016;-87
2023/08/20 02:02:17;;;;;;;7.70;5.63;;;19.60;99.90;;;;;;4926681;29;20633;-87
2023/08/20 02:04:42;;;;;;;6.32;5.00;;;19.60;99.90;;;;;;4906195;29;20063;-87
2023/08/20 02:07:08;;;;;;;8.73;5.30;;;19.70;99.90;;;;;;4908123;29;20027;-87
2023/08/20 02:09:33;;;;;;;13.35;6.35;;;19.80;99.90;;;;;;4924166;29;20032;-87
2023/08/20 02:11:59;;;;;;;14.48;5.57;;;19.80;99.90;;;;;;4924089;29;20035;-84
2023/08/20 02:14:26;;;;;;;8.88;5.28;;;19.80;99.90;;;;;;4940064;29;20020;-87
2023/08/20 02:16:52;;;;;;;10.35;5.63;;;19.80;99.90;;;;;;4927238;29;20035;-85
2023/08/20 02:19:18;;;;;;;8.10;5.28;;;19.90;99.90;;;;;;4914369;29;20075;-87
2023/08/20 02:21:43;;;;;;;6.97;6.07;;;19.90;99.90;;;;;;4923766;29;20079;-81
2023/08/20 02:24:09;;;;;;;8.38;5.70;;;20.00;99.90;;;;;;4909678;29;20043;-87
2023/08/20 02:26:34;;;;;;;10.80;6.05;;;19.90;99.90;;;;;;4909233;29;20484;-87
2023/08/20 02:29:02;;;;;;;5.75;4.95;;;20.00;99.90;;;;;;4907337;29;20036;-87
2023/08/20 02:31:28;;;;;;;7.28;6.57;;;19.90;99.90;;;;;;4930191;29;20110;-87
2023/08/20 02:33:54;;;;;;;8.00;6.00;;;19.90;99.90;;;;;;4906905;29;20119;-87
2023/08/20 02:36:19;;;;;;;7.68;6.43;;;19.90;99.90;;;;;;4925235;29;20111;-87
2023/08/20 02:38:45;;;;;;;11.10;6.63;;;19.80;99.90;;;;;;4924279;29;20476;-87
2023/08/20 02:41:12;;;;;;;12.93;7.85;;;19.80;99.90;;;;;;4906734;29;20020;-88
2023/08/20 02:43:37;;;;;;;10.82;7.78;;;19.70;99.90;;;;;;4923841;29;20111;-88
2023/08/20 02:46:03;;;;;;;17.65;7.47;;;19.70;99.90;;;;;;4907387;29;20107;-86
2023/08/20 02:48:29;;;;;;;11.00;7.43;;;19.70;99.90;;;;;;4925980;29;20063;-87
2023/08/20 02:50:55;;;;;;;14.27;8.52;;;19.70;99.90;;;;;;4907179;29;20556;-87
2023/08/20 02:53:21;;;;;;;15.18;8.68;;;19.70;99.90;;;;;;4911818;29;20115;-87
2023/08/20 02:55:47;;;;;;;10.10;7.80;;;19.60;99.90;;;;;;4926667;29;20036;-88
2023/08/20 02:58:13;;;;;;;15.15;8.60;;;19.70;99.90;;;;;;4922661;29;20028;-87
2023/08/20 03:00:38;;;;;;;10.52;8.02;;;19.70;99.90;;;;;;4908992;29;20027;-87
2023/08/20 03:03:07;;;;;;;11.70;8.35;;;19.60;99.90;;;;;;4925616;29;20507;-87
2023/08/20 03:05:35;;;;;;;12.35;7.70;;;19.60;99.90;;;;;;4925484;29;20031;-87
2023/08/20 03:08:01;;;;;;;16.60;8.82;;;19.70;99.90;;;;;;4908722;29;20932;-87
2023/08/20 03:10:29;;;;;;;9.35;8.25;;;19.70;99.90;;;;;;4908232;29;20107;-87
2023/08/20 03:12:55;;;;;;;13.73;9.48;;;19.70;99.90;;;;;;4910591;29;20042;-87
2023/08/20 03:15:21;;;;;;;13.32;8.52;;;19.70;99.90;;;;;;4922509;29;20029;-87
2023/08/20 03:17:46;;;;;;;17.95;8.68;;;19.70;99.90;;;;;;4910635;29;20167;-87
2023/08/20 03:20:12;;;;;;;16.70;7.90;;;19.60;99.90;;;;;;4917621;29;20031;-87
2023/08/20 03:22:38;;;;;;;16.45;8.27;;;19.60;99.90;;;;;;4910052;29;20019;-87
2023/08/20 03:25:04;;;;;;;14.98;8.27;;;19.60;99.90;;;;;;4922765;29;20358;-87
2023/08/20 03:27:33;;;;;;;11.90;8.25;;;19.50;99.90;;;;;;4922260;29;20091;-86
2023/08/20 03:29:58;;;;;;;13.05;8.60;;;19.50;99.90;;;;;;4912182;29;20035;-87
2023/08/20 03:32:24;;;;;;;23.58;9.80;;;19.50;99.90;;;;;;4925416;29;20032;-87
2023/08/20 03:34:50;;;;;;;11.70;8.30;;;19.60;99.90;;;;;;4910926;29;20087;-87
2023/08/20 03:37:16;;;;;;;15.45;7.97;;;19.60;99.90;;;;;;4923468;29;20029;-87
2023/08/20 03:39:42;;;;;;;12.27;8.02;;;19.70;99.90;;;;;;4924734;29;20024;-87
2023/08/20 03:42:07;;;;;;;12.57;8.40;;;19.60;99.90;;;;;;4923056;29;20034;-87
2023/08/20 03:44:33;;;;;;;16.35;8.68;;;19.60;99.90;;;;;;4923181;29;20039;-87
2023/08/20 03:46:58;;;;;;;11.05;7.40;;;19.60;99.90;;;;;;4937566;29;20084;-87
2023/08/20 03:49:24;;;;;;;12.52;7.63;;;19.70;99.90;;;;;;4913947;29;20060;-87
2023/08/20 03:51:50;;;;;;;11.60;7.88;;;19.70;99.90;;;;;;4926536;29;20090;-88
2023/08/20 03:54:15;;;;;;;13.63;7.70;;;19.80;99.90;;;;;;4923818;29;20019;-86
2023/08/20 03:56:41;;;;;;;13.73;7.82;;;19.70;99.90;;;;;;4915806;29;20532;-87
2023/08/20 03:59:07;;;;;;;12.30;8.35;;;19.60;99.90;;;;;;4923898;29;20099;-88
2023/08/20 04:01:33;;;;;;;12.85;7.38;;;19.60;99.90;;;;;;4922890;29;20028;-87
2023/08/20 04:03:58;;;;;;;15.85;7.90;;;19.60;99.90;;;;;;4909051;29;20028;-87
2023/08/20 04:06:24;;;;;;;14.57;8.48;;;19.60;99.90;;;;;;4926292;29;20028;-87
2023/08/20 04:08:50;;;;;;;16.40;7.85;;;19.60;99.90;;;;;;4925068;29;20519;-87
2023/08/20 04:11:18;;;;;;;12.00;8.20;;;19.60;99.90;;;;;;4910412;29;20479;-87
2023/08/20 04:13:45;;;;;;;13.88;7.93;;;19.60;99.90;;;;;;4923998;29;20021;-87
2023/08/20 04:16:10;;;;;;;13.35;7.70;;;19.50;99.90;;;;;;4927775;29;20031;-86
2023/08/20 04:18:36;;;;;;;11.48;7.25;;;19.60;99.90;;;;;;4911979;29;20491;-88
2023/08/20 04:21:01;;;;;;;14.48;7.60;;;19.60;99.90;;;;;;4927982;29;20042;-87
2023/08/20 04:23:27;;;;;;;14.57;6.95;;;19.60;99.90;;;;;;5039104;23;20044;-89
2023/08/20 04:25:53;;;;;;;12.85;8.15;;;19.60;99.90;;;;;;4950024;28;20106;-87
2023/08/20 04:28:18;;;;;;;15.48;7.80;;;19.50;99.90;;;;;;4947976;28;20019;-87
2023/08/20 04:30:44;;;;;;;13.55;7.28;;;19.50;99.90;;;;;;4948784;28;20019;-87
2023/08/20 04:33:10;;;;;;;12.73;7.68;;;19.50;99.90;;;;;;4954504;28;20016;-81
2023/08/20 04:35:35;;;;;;;16.13;7.40;;;19.40;99.90;;;;;;4956236;28;20035;-81
2023/08/20 04:38:02;;;;;;;12.90;7.28;;;19.40;99.90;;;;;;4961339;28;20019;-81
2023/08/20 04:40:28;;;;;;;10.35;6.95;;;19.50;99.90;;;;;;4943988;28;20027;-81
2023/08/20 04:42:53;;;;;;;17.05;7.13;;;19.50;99.90;;;;;;4938324;28;20105;-81
2023/08/20 04:45:19;;;;;;;12.45;7.32;;;19.50;99.90;;;;;;4949736;28;20500;-81
2023/08/20 04:47:46;;;;;;;12.20;7.68;;;19.50;99.90;;;;;;4952709;28;20163;-80
2023/08/20 04:50:13;;;;;;;13.02;7.90;;;19.50;99.90;;;;;;4942532;28;20019;-81
2023/08/20 04:52:38;;;;;;;13.40;7.38;;;19.40;99.90;;;;;;4955019;28;20045;-81
2023/08/20 04:55:06;;;;;;;11.52;7.45;;;19.50;99.90;;;;;;4957462;28;20511;-81
2023/08/20 04:57:31;;;;;;;12.90;7.57;;;19.40;99.90;;;;;;4957840;28;20023;-81
2023/08/20 04:59:57;;;;;;;11.00;8.05;;;19.40;99.90;;;;;;4955744;28;20074;-80
2023/08/20 05:02:23;;;;;;;10.30;7.35;;;19.40;99.90;;;;;;4945227;28;20023;-81
2023/08/20 05:04:49;;;;;;;12.27;7.25;;;19.40;99.90;;;;;;4956739;28;20463;-80
2023/08/20 05:07:14;;;;;;;14.73;7.80;;;19.30;99.90;;;;;;4946733;28;20082;-81
2023/08/20 05:09:40;;;;;;;13.23;7.82;;;19.40;99.90;;;;;;4945875;28;20019;-81
2023/08/20 05:12:06;;;;;;;16.52;7.35;;;19.40;99.90;;;;;;4943903;28;20055;-81
2023/08/20 05:14:32;;;;;;;10.32;6.65;;;19.50;99.90;;;;;;4958527;28;20054;-81
2023/08/20 05:16:57;;;;;;;12.68;7.93;;;19.50;99.90;;;;;;4955575;28;20062;-80
2023/08/20 05:19:25;;;;;;;14.02;7.38;;;19.50;99.90;;;;;;4963157;28;20473;-81
2023/08/20 05:21:52;;;;;;;12.80;7.45;;;19.50;99.90;;;;;;4956705;28;20035;-81
2023/08/20 05:24:18;;;;;;;15.73;8.27;;;19.50;99.90;;;;;;4944936;28;20407;-81
2023/08/20 05:26:43;;;;;;;15.65;8.23;;;19.60;99.90;;;;;;4962484;28;20039;-81
2023/08/20 05:29:11;;;;;;;10.80;6.88;;;19.60;99.90;;;;;;4956359;28;20118;-81
2023/08/20 05:31:37;;;;;;;15.70;7.85;;;19.70;99.90;;;;;;4956684;28;20983;-81
2023/08/20 05:34:03;;;;;;;11.57;6.95;;;19.70;99.90;;;;;;4959196;28;20033;-80
2023/08/20 05:36:28;;;;;;;12.73;7.30;;;19.80;99.90;;;;;;4955371;28;20487;-81
2023/08/20 05:38:54;;;;;;;13.18;7.18;;;19.80;99.90;;;;;;4952231;28;20027;-81
2023/08/20 05:41:19;;;;;;;8.85;7.22;;;19.90;99.90;;;;;;4938824;28;20030;-81
2023/08/20 05:43:45;;;;;;;9.85;7.05;;;19.90;99.90;;;;;;4955069;28;20031;-80
2023/08/20 05:46:11;;;;;;;12.80;7.30;;;20.00;99.90;;;;;;4954645;28;20110;-81
2023/08/20 05:48:36;;;;;;;10.00;7.38;;;20.00;99.90;;;;;;4944314;28;20034;-82
2023/08/20 05:51:02;;;;;;;13.10;8.10;;;20.10;99.90;;;;;;4939334;28;20118;-81
2023/08/20 05:53:28;;;;;;;12.43;7.38;;;20.10;99.90;;;;;;4945786;28;20029;-81
2023/08/20 05:55:53;;;;;;;10.88;7.13;;;20.20;99.90;;;;;;4953245;28;20031;-81
2023/08/20 05:58:19;;;;;;;14.75;7.43;;;20.30;99.90;;;;;;4944187;28;20019;-81
2023/08/20 06:00:44;;;;;;;9.23;7.07;;;20.40;99.90;;;;;;4952406;28;20103;-81
2023/08/20 06:03:11;;;;;;;10.25;7.30;;;20.40;99.90;;;;;;4958239;28;20463;-86
2023/08/20 06:05:36;;;;;;;12.55;7.18;;;20.50;99.90;;;;;;4956990;28;20037;-86
2023/08/20 06:08:05;;;;;;;11.07;7.28;;;20.50;99.90;;;;;;5115585;23;20050;-82
2023/08/20 06:10:31;;;;;;;10.30;7.38;;;20.60;99.90;;;;;;4981498;28;20061;-82
2023/08/20 06:12:57;;;;;;;12.93;6.82;;;20.70;99.90;;;;;;4978565;28;20057;-80
2023/08/20 06:15:22;;;;;;;11.88;7.60;;;20.70;99.90;;;;;;4962017;28;20034;-82
2023/08/20 06:17:48;;;;;;;16.63;7.00;;;20.80;99.90;;;;;;4961915;28;20053;-87
2023/08/20 06:20:13;;;;;;;11.65;7.50;;;20.90;99.90;;;;;;4980266;28;20038;-82
2023/08/20 06:22:39;;;;;;;8.25;7.07;;;21.00;99.90;;;;;;4960165;28;20423;-82
2023/08/20 06:25:06;;;;;;;10.98;7.47;;;21.10;99.90;;;;;;4960342;28;20042;-81
2023/08/20 06:27:33;;;;;;;12.95;7.95;;;21.10;99.90;;;;;;4976638;28;20076;-87
2023/08/20 06:30:00;;;;;;;16.05;7.80;;;21.10;99.90;;;;;;4965305;28;20034;-87
2023/08/20 06:32:25;;;;;;;11.70;7.35;;;21.20;99.90;;;;;;4964304;28;20072;-87
2023/08/20 06:34:51;;;;;;;15.63;7.55;;;21.30;99.90;;;;;;4983768;28;20045;-87
2023/08/20 06:37:17;;;;;;;14.75;8.02;;;21.40;99.90;;;;;;4981572;28;20483;-87
2023/08/20 06:39:42;;;;;;;15.98;7.57;;;21.50;99.90;;;;;;4981756;28;20109;-84
2023/08/20 06:42:08;;;;;;;17.15;8.55;;;21.50;99.90;;;;;;4965109;28;20058;-88
2023/08/20 06:44:35;;;;;;;13.32;7.78;;;21.40;99.90;;;;;;4979277;28;20030;-82
2023/08/20 06:47:05;;;;;;;17.60;8.77;;;21.50;99.90;;;;;;4960650;28;20031;-87
2023/08/20 06:49:31;;;;;;;14.48;8.38;;;21.50;99.90;;;;;;4979087;28;20121;-81
2023/08/20 06:51:56;;;;;;;15.57;8.02;;;21.50;99.90;;;;;;4964833;28;20580;-88
2023/08/20 06:54:22;;;;;;;21.70;9.38;;;21.60;99.90;;;;;;4982878;28;20030;-87
2023/08/20 06:56:50;;;;;;;14.63;9.88;;;21.70;99.90;;;;;;4963332;28;20098;-88
2023/08/20 06:59:17;;;;;;;27.42;10.38;;;21.90;99.90;;;;;;4978387;28;20027;-82
2023/08/20 07:01:42;;;;;;;19.45;11.98;;;22.00;99.90;;;;;;4963131;28;20034;-85
2023/08/20 07:04:08;;;;;;;27.35;13.57;;;22.00;99.90;;;;;;4981432;28;20031;-85
2023/08/20 07:06:34;;;;;;;21.83;11.80;;;22.10;99.90;;;;;;4965593;28;20028;-88
2023/08/20 07:08:59;;;;;;;33.25;14.20;;;22.20;99.90;;;;;;4963263;28;20019;-87
2023/08/20 07:11:25;;;;;;;25.02;13.90;;;22.30;99.90;;;;;;4964091;28;20034;-83
2023/08/20 07:13:50;;;;;;;24.30;14.50;;;22.30;99.90;;;;;;4976812;28;20081;-82
2023/08/20 07:16:16;;;;;;;29.02;16.95;;;22.30;99.90;;;;;;4978385;28;20030;-82
2023/08/20 07:18:42;;;;;;;30.65;16.45;;;22.40;99.90;;;;;;4960680;28;20485;-79
2023/08/20 07:21:07;;;;;;;33.75;17.75;;;22.40;99.90;;;;;;4978087;28;20029;-79
2023/08/20 07:23:34;;;;;;;35.22;16.25;;;22.40;99.90;;;;;;4978709;28;20022;-87
2023/08/20 07:26:07;;;;;;;28.25;15.40;;;22.20;99.90;;;;;;4979033;28;20042;-87
2023/08/20 07:31:17;;;;;;;29.45;16.85;;;22.50;99.90;;;;;;4982302;28;20126;-87
2023/08/20 07:33:47;;;;;;;35.05;17.10;;;22.40;99.90;;;;;;4978274;28;20130;-81
2023/08/20 07:36:13;;;;;;;27.67;17.98;;;22.40;99.90;;;;;;4975509;28;20018;-82
2023/08/20 07:38:41;;;;;;;32.15;16.90;;;22.40;99.90;;;;;;4980767;28;20050;-82
2023/08/20 07:41:07;;;;;;;37.97;18.25;;;22.50;99.90;;;;;;4977297;28;20125;-83
2023/08/20 07:43:32;;;;;;;31.00;16.95;;;22.50;99.90;;;;;;4961379;28;20351;-82
2023/08/20 07:45:58;;;;;;;35.40;18.15;;;22.60;99.90;;;;;;4976041;28;20042;-81
2023/08/20 07:48:24;;;;;;;31.35;18.52;;;22.70;99.90;;;;;;4963362;28;20041;-88
2023/08/20 07:50:49;;;;;;;29.45;17.00;;;22.80;99.90;;;;;;4965366;28;20037;-85
2023/08/20 07:53:15;;;;;;;31.65;18.20;;;22.60;99.90;;;;;;4964936;28;20034;-84
2023/08/20 07:55:40;;;;;;;32.15;18.20;;;22.90;99.90;;;;;;4980678;28;20037;-87
2023/08/20 07:58:06;;;;;;;36.75;18.25;;;23.00;99.90;;;;;;4969120;28;20120;-87
2023/08/20 08:00:32;;;;;;;30.27;17.00;;;23.10;99.90;;;;;;4963443;28;20034;-88
2023/08/20 08:02:57;;;;;;;73.88;35.28;;;23.30;99.90;;;;;;4964257;28;20023;-84
2023/08/20 08:05:23;;;;;;;37.40;19.50;;;23.50;99.90;;;;;;4978404;28;20097;-85
2023/08/20 08:07:48;;;;;;;29.38;17.17;;;23.50;99.90;;;;;;4981756;28;21256;-86
2023/08/20 08:10:14;;;;;;;30.48;18.75;;;23.50;99.90;;;;;;4978206;28;20037;-80
2023/08/20 08:12:40;;;;;;;34.33;19.05;;;23.70;99.90;;;;;;4978085;28;20054;-80
2023/08/20 08:15:05;;;;;;;30.52;18.08;;;23.70;99.90;;;;;;4977353;28;20088;-81
2023/08/20 08:17:31;;;;;;;28.77;17.00;;;23.70;99.90;;;;;;4977240;28;20050;-80
2023/08/20 08:19:57;;;;;;;28.08;16.27;;;24.00;99.90;;;;;;4976886;28;20049;-81
2023/08/20 08:22:23;;;;;;;30.27;16.38;;;24.10;99.90;;;;;;4961799;28;20023;-82
2023/08/20 08:24:48;;;;;;;305.90;142.88;;;24.20;99.90;;;;;;4980500;28;20038;-83
2023/08/20 08:27:14;;;;;;;27.42;16.58;;;24.30;99.70;;;;;;4959750;28;20068;-81
2023/08/20 08:29:40;;;;;;;29.17;15.80;;;24.50;99.50;;;;;;4957419;28;20034;-84
2023/08/20 08:32:07;;;;;;;28.80;15.38;;;25.00;98.50;;;;;;4978560;28;20030;-82
2023/08/20 08:34:33;;;;;;;23.92;13.52;;;25.00;98.70;;;;;;4977964;28;20031;-83
2023/08/20 08:36:59;;;;;;;24.63;13.05;;;25.30;96.50;;;;;;4963270;28;20819;-84
2023/08/20 08:39:24;;;;;;;23.40;12.77;;;25.40;96.20;;;;;;4964112;28;20099;-88
2023/08/20 08:41:54;;;;;;;24.15;13.88;;;25.50;96.30;;;;;;4964242;28;20468;-87
2023/08/20 08:44:21;;;;;;;22.90;12.65;;;25.40;96.40;;;;;;4979641;28;20443;-87
2023/08/20 08:46:50;;;;;;;26.60;14.05;;;25.50;96.10;;;;;;4963914;28;20035;-86
2023/08/20 08:49:19;;;;;;;24.85;13.82;;;25.50;96.90;;;;;;4962605;28;20093;-87
2023/08/20 08:51:46;;;;;;;21.23;12.20;;;25.10;96.70;;;;;;4966116;28;20038;-79
2023/08/20 08:54:13;;;;;;;17.60;10.85;;;25.20;95.90;;;;;;4964410;28;20023;-79
2023/08/20 08:56:39;;;;;;;20.33;11.15;;;25.40;95.80;;;;;;4982546;28;20054;-83
2023/08/20 08:59:05;;;;;;;20.95;12.15;;;25.50;94.80;;;;;;4965627;28;20026;-86
2023/08/20 09:01:31;;;;;;;20.70;12.23;;;25.40;95.20;;;;;;4983038;28;20032;-86
2023/08/20 09:03:59;;;;;;;149.45;65.28;;;26.00;94.70;;;;;;4966057;28;20023;-90
2023/08/20 09:06:43;;;;;;;118.40;49.25;;;26.10;95.20;;;;;;4964848;28;20038;-83
2023/08/20 09:09:09;;;;;;;22.58;12.75;;;26.70;94.30;;;;;;4972665;28;20038;-83
2023/08/20 09:11:35;;;;;;;26.40;15.25;;;26.70;94.50;;;;;;4973063;28;20022;-78
2023/08/20 09:14:01;;;;;;;20.98;14.00;;;26.90;93.80;;;;;;4968607;28;20544;-84
2023/08/20 09:16:30;;;;;;;21.30;14.48;;;27.10;93.80;;;;;;4956865;28;20039;-79
2023/08/20 09:18:59;;;;;;;23.77;16.55;;;27.20;93.20;;;;;;4961932;28;20556;-79
2023/08/20 09:21:29;;;;;;;29.30;18.30;;;27.20;92.60;;;;;;4980915;28;20026;-78
2023/08/20 09:23:55;;;;;;;23.52;16.35;;;27.30;92.70;;;;;;4976362;28;20018;-78
2023/08/20 09:26:21;;;;;;;24.23;18.45;;;27.20;92.70;;;;;;4980671;28;20125;-78
2023/08/20 09:28:47;;;;;;;30.38;19.85;;;27.20;92.70;;;;;;4980775;28;20109;-83
2023/08/20 09:31:14;;;;;;;27.33;19.70;;;27.50;92.20;;;;;;4960545;28;20124;-82
2023/08/20 09:33:53;;;;;;;27.77;20.42;;;28.10;91.50;;;;;;4963712;28;20506;-81
2023/08/20 09:36:29;;;;;;;35.65;24.20;;;28.50;91.20;;;;;;4964275;28;20026;-80
2023/08/20 09:38:54;;;;;;;26.45;19.10;;;28.80;90.60;;;;;;4981050;28;20117;-80
2023/08/20 09:41:22;;;;;;;21.63;17.02;;;30.10;84.90;;;;;;4979488;28;20164;-82
2023/08/20 09:43:51;;;;;;;23.30;15.40;;;30.50;83.70;;;;;;4980639;28;20614;-83
2023/08/20 09:46:20;;;;;;;22.30;14.95;;;30.50;82.40;;;;;;4961331;28;20529;-82
2023/08/20 09:48:48;;;;;;;22.20;16.48;;;31.00;84.10;;;;;;4979838;28;20042;-80
2023/08/20 09:51:19;;;;;;;23.13;17.17;;;30.90;80.40;;;;;;4974226;28;20041;-77
2023/08/20 09:53:58;;;;;;;21.98;15.95;;;30.90;80.90;;;;;;4978559;28;20022;-78
2023/08/20 09:56:38;;;;;;;13.30;11.95;;;31.50;77.10;;;;;;4950171;28;20484;-79
2023/08/20 09:59:04;;;;;;;11.85;10.68;;;31.70;73.90;;;;;;4977243;28;20034;-78
2023/08/20 10:01:30;;;;;;;14.10;11.50;;;31.60;74.50;;;;;;4960457;28;20054;-78
2023/08/20 10:03:57;;;;;;;16.35;11.70;;;32.10;80.40;;;;;;4976960;28;20042;-78
2023/08/20 10:06:25;;;;;;;13.32;10.13;;;28.50;74.00;;;;;;4974265;28;20119;-78
2023/08/20 10:08:51;;;;;;;17.15;9.60;;;32.30;77.70;;;;;;4976081;28;20074;-78
2023/08/20 10:11:17;;;;;;;11.32;9.18;;;34.80;80.90;;;;;;4960190;28;20069;-80
2023/08/20 10:13:45;;;;;;;11.23;7.50;;;33.00;74.20;;;;;;4975990;28;20026;-77
2023/08/20 10:16:20;;;;;;;18.60;6.55;;;33.10;73.80;;;;;;4977157;28;20022;-76
2023/08/20 10:18:47;;;;;;;8.35;5.25;;;33.50;70.70;;;;;;4971457;28;20030;-77
2023/08/20 10:21:13;;;;;;;9.98;4.88;;;33.30;71.60;;;;;;4977933;28;21059;-77
2023/08/20 10:23:44;;;;;;;8.43;4.55;;;32.90;68.90;;;;;;4975411;28;20062;-78
2023/08/20 10:26:11;;;;;;;9.75;3.80;;;32.80;69.50;;;;;;4972745;28;20042;-78
2023/08/20 10:28:36;;;;;;;8.32;3.30;;;31.50;72.20;;;;;;4933032;28;20046;-77
2023/08/20 10:31:10;;;;;;;5.97;3.28;;;31.10;71.70;;;;;;4926365;29;20494;-78
2023/08/20 10:33:56;;;;;;;8.63;3.13;;;31.30;70.70;;;;;;4918472;28;20054;-78
2023/08/20 10:36:26;;;;;;;6.35;2.83;;;31.30;69.70;;;;;;4921243;28;20033;-77
2023/08/20 10:38:58;;;;;;;10.30;3.10;;;31.40;69.00;;;;;;4935164;29;20044;-77
2023/08/20 10:41:31;;;;;;;7.40;3.22;;;31.80;67.80;;;;;;4935593;29;20031;-78
2023/08/20 10:44:00;;;;;;;;;;;31.80;68.60;;;;;;4922787;29;20027;-78
2023/08/20 10:46:31;;;;;;;6.05;2.88;;;31.60;67.60;;;;;;4936473;29;20081;-80
2023/08/20 10:48:59;;;;;;;5.43;3.00;;;31.10;73.70;;;;;;4924929;29;20511;-79
2023/08/20 10:51:33;;;;;;;7.90;3.00;;;30.90;71.70;;;;;;4934443;28;20031;-80
2023/08/20 10:54:06;;;;;;;7.20;3.38;;;30.80;75.30;;;;;;4935247;28;20039;-81
2023/08/20 10:57:08;;;;;;;6.72;3.22;;;30.40;70.20;;;;;;4935783;28;20067;-80
2023/08/20 10:59:41;;;;;;;7.13;2.65;;;29.70;68.40;;;;;;4865754;29;20036;-79
2023/08/20 11:02:11;;;;;;;;;;;30.70;69.70;;;;;;4921159;29;20050;-80
2023/08/20 11:04:36;;;;;;;5.78;3.10;;;30.20;72.20;;;;;;4937593;28;19906;-79
2023/08/20 11:07:03;;;;;;;4.00;2.72;;;30.50;70.50;;;;;;4926945;29;20106;-80
2023/08/20 11:09:32;;;;;;;8.05;1.92;;;30.80;69.30;;;;;;4936133;28;20395;-80
2023/08/20 11:11:59;;;;;;;4.43;2.13;;;30.90;67.10;;;;;;4937273;28;20759;-80
2023/08/20 11:14:24;;;;;;;5.45;2.63;;;31.10;66.00;;;;;;4937569;28;20027;-80
2023/08/20 11:16:51;;;;;;;7.53;2.25;;;31.30;70.30;;;;;;4938309;28;20041;-80
2023/08/20 11:19:21;;;;;;;3.33;1.70;;;31.50;63.00;;;;;;4925643;28;20125;-80
2023/08/20 11:21:47;;;;;;;2.50;1.70;;;31.50;61.40;;;;;;4941445;29;20031;-80
2023/08/20 11:24:13;;;;;;;4.20;2.67;;;31.60;62.90;;;;;;4940005;28;20585;-79
2023/08/20 11:26:42;;;;;;;11.43;2.80;;;31.60;63.70;;;;;;4936931;28;20043;-80
2023/08/20 11:29:09;;;;;;;2.75;2.50;;;31.70;62.60;;;;;;4937576;29;20031;-80
2023/08/20 11:31:36;;;;;;;6.03;2.00;;;31.60;64.70;;;;;;4939621;28;20027;-84
2023/08/20 11:34:03;;;;;;;2.80;2.00;;;31.70;64.90;;;;;;4936280;28;20032;-83
2023/08/20 11:36:29;;;;;;;7.78;2.08;;;31.80;62.00;;;;;;4937427;28;20492;-85
2023/08/20 11:38:55;;;;;;;5.70;2.15;;;31.30;63.00;;;;;;4931103;28;20090;-81
2023/08/20 11:41:21;;;;;;;4.78;2.78;;;31.50;67.80;;;;;;4940895;28;20027;-84
2023/08/20 11:43:51;;;;;;;7.95;2.33;;;31.80;65.40;;;;;;4942542;28;20102;-85
2023/08/20 11:46:21;;;;;;;5.40;1.88;;;32.10;64.30;;;;;;4936511;28;20447;-85
2023/08/20 11:49:03;;;;;;;4.20;1.90;;;32.30;60.80;;;;;;4935033;28;20634;-85
2023/08/20 11:51:49;;;;;;;6.72;2.22;;;32.30;62.70;;;;;;4940335;29;20087;-85
2023/08/20 11:54:16;;;;;;;5.22;2.47;;;32.60;64.40;;;;;;4945240;28;20039;-83
2023/08/20 11:56:49;;;;;;;4.10;1.95;;;32.80;61.40;;;;;;4949680;28;20086;-84
2023/08/20 11:59:17;;;;;;;4.68;1.90;;;33.00;59.50;;;;;;4934664;28;20031;-84
2023/08/20 12:01:43;;;;;;;5.68;2.17;;;33.00;58.50;;;;;;4938432;29;20025;-86
2023/08/20 12:04:11;;;;;;;7.18;1.90;;;33.00;59.20;;;;;;4937720;28;20027;-81
2023/08/20 12:06:38;;;;;;;6.07;2.30;;;33.00;59.50;;;;;;4933834;28;20054;-81
2023/08/20 12:09:23;;;;;;;8.00;2.15;;;33.10;57.60;;;;;;4937563;29;20031;-85
2023/08/20 12:11:52;;;;;;;6.05;1.98;;;33.30;57.80;;;;;;4941789;28;20046;-82
2023/08/20 12:14:19;;;;;;;4.70;2.13;;;33.30;58.50;;;;;;4934213;28;20083;-86
2023/08/20 12:16:45;;;;;;;2.60;2.08;;;33.40;59.00;;;;;;4940189;29;20055;-79
2023/08/20 12:19:13;;;;;;;4.95;2.20;;;33.40;58.00;;;;;;4938944;28;20380;-80
2023/08/20 12:21:41;;;;;;;7.10;2.20;;;33.30;56.50;;;;;;4949828;28;20023;-79
2023/08/20 12:24:11;;;;;;;4.82;1.70;;;32.90;56.30;;;;;;4938654;28;20436;-78
2023/08/20 12:26:37;;;;;;;4.97;2.13;;;32.70;57.60;;;;;;4951278;28;20094;-92
2023/08/20 12:29:03;;;;;;;5.07;1.63;;;32.70;56.00;;;;;;4950829;28;20070;-95
2023/08/20 12:31:29;;;;;;;6.25;2.20;;;32.90;56.90;;;;;;4954331;29;20023;-82
2023/08/20 12:33:54;;;;;;;4.20;1.90;;;33.00;55.40;;;;;;5000850;23;20049;-85
2023/08/20 12:36:20;;;;;;;2.75;2.17;;;33.00;54.70;;;;;;5329487;23;21042;-94
2023/08/20 12:38:46;;;;;;;4.60;2.20;;;32.80;57.00;;;;;;5008392;23;20047;-95
2023/08/20 12:41:14;;;;;;;5.40;1.65;;;32.90;58.70;;;;;;4951368;29;20027;-94